Time;durP1;ratioP1;P1;durP2;ratioP2;P2;SDS_P1;SDS_P2;PMS_P1;PMS_P2;Temp;Humidity;BMP_temperature;BMP_pressure;BME280_temperature;BME280_humidity;BME280_pressure;Samples;Min_cycle;Max_cycle;Signal;HPM_P1;HPM_P2
2024/03/16 00:03:26;;;;;;;;;;;18.80;44.70;;;;;;8365874;28;19913;-59
2024/03/16 00:07:27;;;;;;;;;;;18.80;44.70;;;;;;8365441;28;20367;-59
2024/03/16 00:11:27;;;;;;;;;;;18.80;44.70;;;;;;8365576;28;19905;-59
2024/03/16 00:15:28;;;;;;;;;;;18.80;44.70;;;;;;8364976;28;19916;-59
2024/03/16 00:19:28;;;;;;;;;;;18.80;44.70;;;;;;8365345;28;19999;-60
2024/03/16 00:23:29;;;;;;;;;;;18.80;44.70;;;;;;8365016;28;19963;-59
2024/03/16 00:27:32;;;;;;;;;;;18.80;44.70;;;;;;8364713;28;20294;-60
2024/03/16 00:31:35;;;;;;;;;;;18.80;44.70;;;;;;8365145;28;20342;-59
2024/03/16 00:35:36;;;;;;;;;;;18.80;44.80;;;;;;8364539;28;19933;-59
2024/03/16 00:39:37;;;;;;;;;;;18.80;44.80;;;;;;8364222;28;19908;-60
2024/03/16 00:43:37;;;;;;;;;;;18.80;44.80;;;;;;8364557;28;19908;-60
2024/03/16 00:47:38;;;;;;;;;;;18.80;44.80;;;;;;8364181;28;19920;-59
2024/03/16 00:51:39;;;;;;;;;;;18.80;44.80;;;;;;8364289;28;19915;-60
2024/03/16 00:55:39;;;;;;;;;;;18.80;44.80;;;;;;8364013;28;19913;-60
2024/03/16 00:59:40;;;;;;;;;;;18.80;44.80;;;;;;8363919;28;19909;-60
2024/03/16 01:03:40;;;;;;;;;;;18.80;44.80;;;;;;8364035;28;19909;-59
2024/03/16 01:07:41;;;;;;;;;;;18.70;44.80;;;;;;8363939;28;19909;-59
2024/03/16 01:11:43;;;;;;;;;;;18.80;44.80;;;;;;8363429;28;19904;-60
2024/03/16 01:15:43;;;;;;;;;;;18.80;44.80;;;;;;8363221;28;19966;-60
2024/03/16 01:19:44;;;;;;;;;;;18.80;44.80;;;;;;8363363;28;19909;-58
2024/03/16 01:23:45;;;;;;;;;;;18.70;44.80;;;;;;8363314;28;19916;-60
2024/03/16 01:27:45;;;;;;;;;;;18.70;44.80;;;;;;8363029;28;20004;-60
2024/03/16 01:31:46;;;;;;;;;;;18.70;44.80;;;;;;8363051;28;19909;-60
2024/03/16 01:35:49;;;;;;;;;;;18.70;44.80;;;;;;8362659;28;20003;-60
2024/03/16 01:39:50;;;;;;;;;;;18.70;44.80;;;;;;8362540;28;20358;-59
2024/03/16 01:43:51;;;;;;;;;;;18.70;44.80;;;;;;8362489;28;20396;-60
2024/03/16 01:47:55;;;;;;;;;;;18.70;44.90;;;;;;8362230;28;19908;-59
2024/03/16 01:51:55;;;;;;;;;;;18.70;44.80;;;;;;8361483;28;20004;-58
2024/03/16 01:55:56;;;;;;;;;;;18.70;44.90;;;;;;8362137;28;19916;-59
2024/03/16 01:59:56;;;;;;;;;;;18.70;44.90;;;;;;8362062;28;19919;-58
2024/03/16 02:03:57;;;;;;;;;;;18.70;44.90;;;;;;8362027;28;20317;-56
2024/03/16 02:07:59;;;;;;;;;;;18.70;44.90;;;;;;8361820;28;19912;-59
2024/03/16 02:12:00;;;;;;;;;;;18.70;44.90;;;;;;8362215;28;20517;-58
2024/03/16 02:16:09;;;;;;;;;;;18.70;44.90;;;;;;8382695;28;19945;-58
2024/03/16 02:20:14;;;;;;;;;;;18.70;44.90;;;;;;8350223;28;19924;-57
2024/03/16 02:24:15;;;;;;;;;;;18.70;44.90;;;;;;8350451;28;20513;-57
2024/03/16 02:28:15;;;;;;;;;;;18.70;44.90;;;;;;8349957;28;20323;-58
2024/03/16 02:32:16;;;;;;;;;;;18.70;44.90;;;;;;8350041;28;19919;-57
2024/03/16 02:36:17;;;;;;;;;;;18.70;44.90;;;;;;8349722;28;19989;-57
2024/03/16 02:40:18;;;;;;;;;;;18.70;44.90;;;;;;8349825;28;20025;-57
2024/03/16 02:44:19;;;;;;;;;;;18.70;44.90;;;;;;8351636;27;20025;-58
2024/03/16 02:48:19;;;;;;;;;;;18.70;44.90;;;;;;8349412;28;19913;-58
2024/03/16 02:52:20;;;;;;;;;;;18.70;44.90;;;;;;8349411;28;19913;-58
2024/03/16 02:56:20;;;;;;;;;;;18.70;44.90;;;;;;8349476;28;20011;-58
2024/03/16 03:00:21;;;;;;;;;;;18.70;44.90;;;;;;8349239;28;19924;-59
2024/03/16 03:04:22;;;;;;;;;;;18.70;44.90;;;;;;8349033;28;20381;-59
2024/03/16 03:08:22;;;;;;;;;;;18.70;44.90;;;;;;8347844;28;19913;-59
2024/03/16 03:12:24;;;;;;;;;;;18.70;44.90;;;;;;8350542;27;20278;-59
2024/03/16 03:16:25;;;;;;;;;;;18.70;45.00;;;;;;8348756;28;19916;-59
2024/03/16 03:20:26;;;;;;;;;;;18.70;44.90;;;;;;8348638;28;19965;-59
2024/03/16 03:24:26;;;;;;;;;;;18.70;45.00;;;;;;8343744;28;20279;-59
2024/03/16 03:28:27;;;;;;;;;;;18.70;45.00;;;;;;8326521;28;20287;-59
2024/03/16 03:32:28;;;;;;;;;;;18.70;45.00;;;;;;8325199;28;20422;-58
2024/03/16 03:36:29;;;;;;;;;;;18.70;45.00;;;;;;8326651;28;19914;-59
2024/03/16 03:40:30;;;;;;;;;;;18.70;45.00;;;;;;8326181;28;20302;-59
2024/03/16 03:44:49;;;;;;;;;;;18.70;45.00;;;;;;8327947;27;19916;-59
2024/03/16 03:49:00;;;;;;;;;;;18.70;45.00;;;;;;8326544;28;20378;-59
2024/03/16 03:53:02;;;;;;;;;;;18.70;45.00;;;;;;8309528;28;19917;-59
2024/03/16 03:57:03;;;;;;;;;;;18.70;45.00;;;;;;8308501;28;19928;-59
2024/03/16 04:01:04;;;;;;;;;;;18.70;45.00;;;;;;8325709;28;19913;-59
2024/03/16 04:05:05;;;;;;;;;;;18.70;45.10;;;;;;8324364;28;19924;-59
2024/03/16 04:09:05;;;;;;;;;;;18.70;45.00;;;;;;8325449;28;19939;-62
2024/03/16 04:13:06;;;;;;;;;;;18.70;45.10;;;;;;8325848;27;19921;-61
2024/03/16 04:17:07;;;;;;;;;;;18.60;45.10;;;;;;8325490;28;19913;-61
2024/03/16 04:21:08;;;;;;;;;;;18.70;45.10;;;;;;8325088;28;19914;-61
2024/03/16 04:25:11;;;;;;;;;;;18.70;45.10;;;;;;8325104;28;19913;-60
2024/03/16 04:29:12;;;;;;;;;;;18.70;45.10;;;;;;8324933;28;20271;-61
2024/03/16 04:33:15;;;;;;;;;;;18.70;45.10;;;;;;8324924;28;19917;-62
2024/03/16 04:37:17;;;;;;;;;;;18.70;45.10;;;;;;8323666;28;19913;-61
2024/03/16 04:41:19;;;;;;;;;;;18.60;45.10;;;;;;8324708;28;20434;-60
2024/03/16 04:45:19;;;;;;;;;;;18.70;45.10;;;;;;8326562;27;19966;-60
2024/03/16 04:49:20;;;;;;;;;;;18.60;45.10;;;;;;8324323;28;20504;-61
2024/03/16 04:53:21;;;;;;;;;;;18.70;45.10;;;;;;8324457;28;19924;-61
2024/03/16 04:57:22;;;;;;;;;;;18.70;45.10;;;;;;8324227;28;20008;-62
2024/03/16 05:01:22;;;;;;;;;;;18.70;45.20;;;;;;8324190;28;19913;-62
2024/03/16 05:05:23;;;;;;;;;;;18.70;45.20;;;;;;8324035;28;19920;-62
2024/03/16 05:09:23;;;;;;;;;;;18.70;45.10;;;;;;8322622;28;19962;-62
2024/03/16 05:13:26;;;;;;;;;;;18.60;45.10;;;;;;8325370;27;20016;-62
2024/03/16 05:17:27;;;;;;;;;;;18.70;45.70;;;;;;8323700;28;19909;-61
2024/03/16 05:21:28;;;;;;;;;;;18.70;45.10;;;;;;8322609;28;19919;-58
2024/03/16 05:25:29;;;;;;;;;;;18.70;45.10;;;;;;8323375;28;20394;-58
2024/03/16 05:29:29;;;;;;;;;;;18.70;45.10;;;;;;8323308;28;20328;-58
2024/03/16 05:33:30;;;;;;;;;;;18.70;45.10;;;;;;8323330;28;19925;-58
2024/03/16 05:37:30;;;;;;;;;;;18.60;45.10;;;;;;8323386;28;19920;-58
2024/03/16 05:41:31;;;;;;;;;;;18.60;45.10;;;;;;8325122;28;20393;-58
2024/03/16 05:45:31;;;;;;;;;;;18.60;45.10;;;;;;8323011;28;19913;-58
2024/03/16 05:49:32;;;;;;;;;;;18.60;45.10;;;;;;8322704;28;19921;-57
2024/03/16 05:53:32;;;;;;;;;;;18.60;45.10;;;;;;8322820;28;19957;-57
2024/03/16 05:57:33;;;;;;;;;;;18.60;45.20;;;;;;8322783;28;19920;-58
2024/03/16 06:01:34;;;;;;;;;;;18.60;45.20;;;;;;8322921;28;20028;-58
2024/03/16 06:05:37;;;;;;;;;;;18.60;45.20;;;;;;8304883;28;19921;-58
2024/03/16 06:09:38;;;;;;;;;;;18.60;45.20;;;;;;8321326;28;19920;-58
2024/03/16 06:13:39;;;;;;;;;;;18.60;45.20;;;;;;8324210;28;19932;-58
2024/03/16 06:17:39;;;;;;;;;;;18.60;45.20;;;;;;8322257;28;20370;-58
2024/03/16 06:21:40;;;;;;;;;;;18.60;45.20;;;;;;8322334;28;20004;-58
2024/03/16 06:25:47;;;;;;;;;;;18.70;45.20;;;;;;8322266;28;19917;-57
2024/03/16 06:29:52;;;;;;;;;;;18.70;45.10;;;;;;8320794;28;20012;-59
2024/03/16 06:33:52;;;;;;;;;;;18.80;45.00;;;;;;8321980;28;19917;-58
2024/03/16 06:37:53;;;;;;;;;;;18.80;45.00;;;;;;8321966;28;19958;-59
2024/03/16 06:41:54;;;;;;;;;;;18.80;44.90;;;;;;8323548;28;20000;-59
2024/03/16 06:45:54;;;;;;;;;;;18.90;44.90;;;;;;8321480;28;19914;-59
2024/03/16 06:49:55;;;;;;;;;;;18.90;44.80;;;;;;8321602;28;20384;-59
2024/03/16 06:53:55;;;;;;;;;;;18.90;44.80;;;;;;8321451;28;19939;-59
2024/03/16 06:57:56;;;;;;;;;;;18.90;44.70;;;;;;8320242;28;19913;-59
2024/03/16 07:01:56;;;;;;;;;;;18.90;44.70;;;;;;8325787;28;19913;-59
2024/03/16 07:05:57;;;;;;;;;;;18.90;44.70;;;;;;8326886;28;20004;-59
2024/03/16 07:09:58;;;;;;;;;;;18.90;44.70;;;;;;8327084;28;19913;-59
2024/03/16 07:13:58;;;;;;;;;;;18.90;44.70;;;;;;8328415;28;19925;-59
2024/03/16 07:17:59;;;;;;;;;;;18.90;44.70;;;;;;8326710;28;19948;-58
2024/03/16 07:22:00;;;;;;;;;;;18.90;44.70;;;;;;8326768;28;20007;-59
2024/03/16 07:26:01;;;;;;;;;;;18.90;44.60;;;;;;8326332;28;19920;-59
2024/03/16 07:30:01;;;;;;;;;;;18.90;44.60;;;;;;8326504;28;19914;-59
2024/03/16 07:34:03;;;;;;;;;;;18.90;44.70;;;;;;8326290;28;19913;-59
2024/03/16 07:38:04;;;;;;;;;;;18.90;44.70;;;;;;8325916;28;20443;-59
2024/03/16 07:42:05;;;;;;;;;;;18.90;44.70;;;;;;8328251;27;19917;-59
2024/03/16 07:46:06;;;;;;;;;;;18.90;44.60;;;;;;8325906;28;19914;-59
2024/03/16 07:50:07;;;;;;;;;;;19.00;44.70;;;;;;8325780;28;20342;-59
2024/03/16 07:54:11;;;;;;;;;;;18.90;44.60;;;;;;8325665;28;20410;-59
2024/03/16 07:58:12;;;;;;;;;;;18.90;44.60;;;;;;8325651;28;19917;-59
2024/03/16 08:02:13;;;;;;;;;;;18.90;44.60;;;;;;8324673;28;19961;-59
2024/03/16 08:06:13;;;;;;;;;;;18.90;44.60;;;;;;8324185;28;19913;-58
2024/03/16 08:10:14;;;;;;;;;;;18.90;44.60;;;;;;8325186;28;20294;-59
2024/03/16 08:14:14;;;;;;;;;;;19.00;44.60;;;;;;8325744;27;20294;-59
2024/03/16 08:18:15;;;;;;;;;;;18.90;44.50;;;;;;8325252;28;19921;-59
2024/03/16 08:22:16;;;;;;;;;;;19.00;44.60;;;;;;8325106;28;19914;-59
2024/03/16 08:26:16;;;;;;;;;;;18.90;44.60;;;;;;8325220;28;19921;-59
2024/03/16 08:30:17;;;;;;;;;;;18.90;44.60;;;;;;8325083;28;20400;-57
2024/03/16 08:34:17;;;;;;;;;;;18.90;44.60;;;;;;8324598;28;19923;-59
2024/03/16 08:38:19;;;;;;;;;;;18.90;44.60;;;;;;8324512;28;19914;-59
2024/03/16 08:42:20;;;;;;;;;;;18.90;44.60;;;;;;8326648;27;20628;-58
2024/03/16 08:46:20;;;;;;;;;;;18.90;44.60;;;;;;8324705;28;19928;-59
2024/03/16 08:50:21;;;;;;;;;;;18.90;44.60;;;;;;8323180;27;19945;-59
2024/03/16 08:54:22;;;;;;;;;;;18.90;44.60;;;;;;8324423;28;19928;-59
2024/03/16 08:58:24;;;;;;;;;;;18.90;44.70;;;;;;8324302;28;19962;-59
2024/03/16 09:02:25;;;;;;;;;;;18.90;44.70;;;;;;8324101;28;19925;-59
2024/03/16 09:06:26;;;;;;;;;;;18.90;44.70;;;;;;8322782;28;19991;-59
2024/03/16 09:10:26;;;;;;;;;;;18.90;44.70;;;;;;8323958;28;19920;-59
2024/03/16 09:14:27;;;;;;;;;;;18.90;44.70;;;;;;8325645;28;19925;-59
2024/03/16 09:18:27;;;;;;;;;;;18.90;44.60;;;;;;8323817;28;19921;-59
2024/03/16 09:22:28;;;;;;;;;;;18.90;44.70;;;;;;8323256;28;19920;-59
2024/03/16 09:26:29;;;;;;;;;;;18.90;44.70;;;;;;8323683;28;19918;-59
2024/03/16 09:30:29;;;;;;;;;;;18.90;44.70;;;;;;8323370;28;20393;-58
2024/03/16 09:34:30;;;;;;;;;;;18.80;44.70;;;;;;8323343;28;19967;-59
2024/03/16 09:38:32;;;;;;;;;;;18.80;44.80;;;;;;8323411;28;19909;-58
2024/03/16 09:42:33;;;;;;;;;;;18.80;44.80;;;;;;8323434;28;19913;-59
2024/03/16 09:46:34;;;;;;;;;;;18.80;44.80;;;;;;8323123;28;20400;-59
2024/03/16 09:50:40;;;;;;;;;;;18.80;44.90;;;;;;8323261;28;19913;-59
2024/03/16 09:54:41;;;;;;;;;;;18.80;44.90;;;;;;8322812;28;19971;-58
2024/03/16 09:58:41;;;;;;;;;;;18.80;44.90;;;;;;8322852;28;19913;-59
2024/03/16 10:02:42;;;;;;;;;;;18.80;44.80;;;;;;8322908;28;19913;-57
2024/03/16 10:06:43;;;;;;;;;;;18.90;44.80;;;;;;8322556;28;20406;-57
2024/03/16 10:10:43;;;;;;;;;;;18.90;44.80;;;;;;8322569;28;20367;-57
2024/03/16 10:14:46;;;;;;;;;;;18.90;44.70;;;;;;8323936;28;19925;-58
2024/03/16 10:18:49;;;;;;;;;;;18.90;44.60;;;;;;8322284;28;19913;-58
2024/03/16 10:22:50;;;;;;;;;;;18.90;44.70;;;;;;8322249;28;19910;-57
2024/03/16 10:26:51;;;;;;;;;;;18.90;44.60;;;;;;8322333;28;19914;-58
2024/03/16 10:30:52;;;;;;;;;;;18.90;44.70;;;;;;8322297;28;19913;-58
2024/03/16 10:34:54;;;;;;;;;;;18.90;44.70;;;;;;8323184;28;19966;-58
2024/03/16 10:38:55;;;;;;;;;;;18.90;44.70;;;;;;8327948;28;20397;-57
2024/03/16 10:42:58;;;;;;;;;;;18.90;44.70;;;;;;8329356;27;19962;-58
2024/03/16 10:46:59;;;;;;;;;;;18.90;44.80;;;;;;8327960;28;19920;-58
2024/03/16 10:51:00;;;;;;;;;;;18.90;44.80;;;;;;8327560;28;19913;-58
2024/03/16 10:55:01;;;;;;;;;;;18.90;44.70;;;;;;8327421;28;20378;-57
2024/03/16 10:59:05;;;;;;;;;;;18.90;44.70;;;;;;8327333;28;20332;-58
2024/03/16 11:03:09;;;;;;;;;;;18.90;44.70;;;;;;8327678;28;19961;-58
2024/03/16 11:07:13;;;;;;;;;;;18.90;44.70;;;;;;8327296;28;20472;-58
2024/03/16 11:11:18;;;;;;;;;;;18.90;44.70;;;;;;8327060;28;19909;-59
2024/03/16 11:15:37;;;;;;;;;;;18.90;44.80;;;;;;8328646;27;19969;-59
2024/03/16 11:19:37;;;;;;;;;;;18.90;44.80;;;;;;8326914;28;19957;-59
2024/03/16 11:23:40;;;;;;;;;;;18.80;44.70;;;;;;8327162;28;19973;-59
2024/03/16 11:27:48;;;;;;;;;;;18.80;44.80;;;;;;8326660;28;19925;-58
2024/03/16 11:31:53;;;;;;;;;;;18.80;44.80;;;;;;8326767;28;19948;-59
2024/03/16 11:35:59;;;;;;;;;;;18.80;44.80;;;;;;8326500;28;19924;-58
2024/03/16 11:39:59;;;;;;;;;;;18.90;44.80;;;;;;8326247;28;20256;-59
2024/03/16 11:44:00;;;;;;;;;;;18.90;44.80;;;;;;8328092;27;20275;-59
2024/03/16 11:48:01;;;;;;;;;;;18.80;44.80;;;;;;8325780;28;19909;-60
2024/03/16 11:52:01;;;;;;;;;;;18.90;44.80;;;;;;8326014;28;19968;-58
2024/03/16 11:56:02;;;;;;;;;;;18.90;44.80;;;;;;8326033;28;20011;-58
2024/03/16 12:00:12;;;;;;;;;;;18.80;44.80;;;;;;8326569;28;19914;-59
2024/03/16 12:04:13;;;;;;;;;;;18.90;44.80;;;;;;8325660;28;20393;-60
2024/03/16 12:08:15;;;;;;;;;;;18.90;44.80;;;;;;8307761;28;20323;-59
2024/03/16 12:12:15;;;;;;;;;;;18.80;44.80;;;;;;8327443;27;19918;-59
2024/03/16 12:16:17;;;;;;;;;;;18.90;44.80;;;;;;8325895;28;20017;-59
2024/03/16 12:20:19;;;;;;;;;;;18.90;44.80;;;;;;8325330;28;19909;-58
2024/03/16 12:24:20;;;;;;;;;;;18.80;44.80;;;;;;8325437;28;19962;-57
2024/03/16 12:28:21;;;;;;;;;;;18.80;44.80;;;;;;8325579;28;19913;-57
2024/03/16 12:32:22;;;;;;;;;;;18.90;44.80;;;;;;8325069;28;19970;-58
2024/03/16 12:36:22;;;;;;;;;;;18.90;44.80;;;;;;8325139;28;20286;-58
2024/03/16 12:40:23;;;;;;;;;;;18.80;44.80;;;;;;8324786;28;20365;-57
2024/03/16 12:44:23;;;;;;;;;;;18.80;44.80;;;;;;8326549;28;19917;-59
2024/03/16 12:48:24;;;;;;;;;;;18.80;44.80;;;;;;8324808;28;19913;-58
2024/03/16 12:52:25;;;;;;;;;;;18.80;44.90;;;;;;8324705;28;19913;-58
2024/03/16 12:56:25;;;;;;;;;;;18.80;44.90;;;;;;8324617;28;19924;-58
2024/03/16 13:00:26;;;;;;;;;;;18.80;44.90;;;;;;8324209;28;19924;-57
2024/03/16 13:04:27;;;;;;;;;;;18.80;44.90;;;;;;8324543;28;20363;-57
2024/03/16 13:08:28;;;;;;;;;;;18.80;44.90;;;;;;8324648;28;19970;-58
2024/03/16 13:12:28;;;;;;;;;;;18.80;44.80;;;;;;8325994;28;19972;-58
2024/03/16 13:16:29;;;;;;;;;;;18.80;44.80;;;;;;8323984;28;19917;-58
2024/03/16 13:20:29;;;;;;;;;;;18.80;44.80;;;;;;8323981;28;19913;-58
2024/03/16 13:24:30;;;;;;;;;;;18.90;44.90;;;;;;8323547;28;19956;-58
2024/03/16 13:28:33;;;;;;;;;;;18.90;44.90;;;;;;8323477;28;19914;-58
2024/03/16 13:32:33;;;;;;;;;;;18.90;44.80;;;;;;8323629;28;20008;-62
2024/03/16 13:36:35;;;;;;;;;;;18.90;44.80;;;;;;8323602;28;19913;-62
2024/03/16 13:40:35;;;;;;;;;;;18.90;44.90;;;;;;8323850;28;20144;-61
2024/03/16 13:44:38;;;;;;;;;;;18.90;44.90;;;;;;8324457;28;19923;-62
2024/03/16 13:48:38;;;;;;;;;;;18.80;44.80;;;;;;8323090;28;19920;-62
2024/03/16 13:52:39;;;;;;;;;;;18.80;44.80;;;;;;8323198;28;19919;-61
2024/03/16 13:56:40;;;;;;;;;;;18.90;44.90;;;;;;8323047;28;20259;-61
2024/03/16 14:00:41;;;;;;;;;;;18.80;44.80;;;;;;8322575;28;20028;-62
2024/03/16 14:04:42;;;;;;;;;;;18.90;44.90;;;;;;8321342;28;19913;-62
2024/03/16 14:08:43;;;;;;;;;;;18.80;44.80;;;;;;8322539;28;20004;-62
2024/03/16 14:12:48;;;;;;;;;;;18.90;44.90;;;;;;8323883;28;19925;-61
2024/03/16 14:16:49;;;;;;;;;;;18.90;44.90;;;;;;8322708;28;20003;-61
2024/03/16 14:20:50;;;;;;;;;;;18.80;44.80;;;;;;8320813;28;19913;-60
2024/03/16 14:24:51;;;;;;;;;;;18.90;44.90;;;;;;8322135;28;19913;-61
2024/03/16 14:28:52;;;;;;;;;;;18.80;44.80;;;;;;8322215;28;20049;-62
2024/03/16 14:32:52;;;;;;;;;;;18.90;45.80;;;;;;8322456;28;19917;-62
2024/03/16 14:36:53;;;;;;;;;;;18.80;46.50;;;;;;8322780;28;19920;-62
2024/03/16 14:40:54;;;;;;;;;;;18.80;46.60;;;;;;8322402;28;19986;-59
2024/03/16 14:44:55;;;;;;;;;;;18.80;46.00;;;;;;8323651;28;20404;-59
2024/03/16 14:48:56;;;;;;;;;;;18.70;46.60;;;;;;8321766;28;19913;-59
2024/03/16 14:52:59;;;;;;;;;;;18.70;46.90;;;;;;8321474;28;19962;-58
2024/03/16 14:57:00;;;;;;;;;;;18.80;47.00;;;;;;8321751;28;19909;-58
2024/03/16 15:01:00;;;;;;;;;;;18.80;46.90;;;;;;8321694;28;19972;-58
2024/03/16 15:05:02;;;;;;;;;;;18.80;46.60;;;;;;8321368;28;20373;-58
2024/03/16 15:09:08;;;;;;;;;;;18.80;46.60;;;;;;8321234;28;20274;-58
2024/03/16 15:13:08;;;;;;;;;;;18.80;46.60;;;;;;8323005;28;19921;-58
2024/03/16 15:17:10;;;;;;;;;;;18.80;46.70;;;;;;8323002;28;19913;-57
2024/03/16 15:21:11;;;;;;;;;;;18.80;46.10;;;;;;8322398;28;19965;-58
2024/03/16 15:25:20;;;;;;;;;;;18.80;46.10;;;;;;8327942;28;20013;-59
2024/03/16 15:29:21;;;;;;;;;;;18.80;46.00;;;;;;8328272;28;19920;-59
2024/03/16 15:33:22;;;;;;;;;;;18.80;46.10;;;;;;8326502;28;19921;-59
2024/03/16 15:37:23;;;;;;;;;;;18.80;46.10;;;;;;8327464;28;20358;-59
2024/03/16 15:41:24;;;;;;;;;;;18.80;46.10;;;;;;8329041;27;19909;-59
2024/03/16 15:45:24;;;;;;;;;;;18.80;46.00;;;;;;8326464;28;19920;-59
2024/03/16 15:49:25;;;;;;;;;;;18.80;46.00;;;;;;8298256;28;19909;-59
2024/03/16 15:53:26;;;;;;;;;;;18.80;46.00;;;;;;8295022;28;19921;-62
2024/03/16 15:57:26;;;;;;;;;;;18.90;46.40;;;;;;8295932;28;20370;-60
2024/03/16 16:01:28;;;;;;;;;;;18.80;47.10;;;;;;8296338;28;20340;-58
2024/03/16 16:05:28;;;;;;;;;;;18.80;47.40;;;;;;8295948;28;19916;-58
2024/03/16 16:09:30;;;;;;;;;;;18.80;47.90;;;;;;8295812;28;19914;-59
2024/03/16 16:13:31;;;;;;;;;;;18.90;47.80;;;;;;8313852;28;19976;-58
2024/03/16 16:17:31;;;;;;;;;;;18.90;47.80;;;;;;8328195;28;19913;-57
2024/03/16 16:21:32;;;;;;;;;;;18.90;47.60;;;;;;8328017;28;19919;-58
2024/03/16 16:25:35;;;;;;;;;;;18.90;47.30;;;;;;8327998;27;19932;-58
2024/03/16 16:29:35;;;;;;;;;;;18.90;47.30;;;;;;8302526;27;19910;-59
2024/03/16 16:33:36;;;;;;;;;;;18.90;47.20;;;;;;8306696;28;20021;-57
2024/03/16 16:37:39;;;;;;;;;;;18.90;47.10;;;;;;8308997;28;19913;-58
2024/03/16 16:41:40;;;;;;;;;;;18.90;46.90;;;;;;8329544;27;19921;-58
2024/03/16 16:45:40;;;;;;;;;;;19.00;46.60;;;;;;8308908;28;19913;-57
2024/03/16 16:49:41;;;;;;;;;;;19.10;46.30;;;;;;8327491;28;19909;-57
2024/03/16 16:53:42;;;;;;;;;;;19.10;46.20;;;;;;8327293;28;20390;-57
2024/03/16 16:57:43;;;;;;;;;;;19.20;46.20;;;;;;8316048;28;19921;-58
2024/03/16 17:01:44;;;;;;;;;;;19.20;46.30;;;;;;8304995;28;19918;-56
2024/03/16 17:05:44;;;;;;;;;;;19.30;46.50;;;;;;8323040;28;20133;-56
2024/03/16 17:09:45;;;;;;;;;;;19.30;46.30;;;;;;8327214;28;19909;-57
2024/03/16 17:13:46;;;;;;;;;;;19.30;46.90;;;;;;8328482;27;19929;-56
2024/03/16 17:17:46;;;;;;;;;;;19.30;46.60;;;;;;8326758;28;19935;-57
2024/03/16 17:21:47;;;;;;;;;;;19.30;46.60;;;;;;8326868;28;19913;-57
2024/03/16 17:25:47;;;;;;;;;;;19.30;46.60;;;;;;8326453;28;19920;-57
2024/03/16 17:29:48;;;;;;;;;;;19.30;46.50;;;;;;8320526;28;20337;-57
2024/03/16 17:33:49;;;;;;;;;;;19.40;46.30;;;;;;8325950;28;19961;-57
2024/03/16 17:37:49;;;;;;;;;;;19.40;46.20;;;;;;8316600;28;20374;-56
2024/03/16 17:41:50;;;;;;;;;;;19.40;46.40;;;;;;8299227;27;19962;-56
2024/03/16 17:45:50;;;;;;;;;;;19.50;46.70;;;;;;8324772;28;20378;-56
2024/03/16 17:49:51;;;;;;;;;;;19.50;46.60;;;;;;8325980;28;20367;-56
2024/03/16 17:53:52;;;;;;;;;;;19.40;46.30;;;;;;8326460;28;19918;-57
2024/03/16 17:57:58;;;;;;;;;;;19.50;46.50;;;;;;8324435;28;20275;-58
2024/03/16 18:01:58;;;;;;;;;;;19.50;46.50;;;;;;8325558;28;19927;-56
2024/03/16 18:05:59;;;;;;;;;;;19.50;46.50;;;;;;8314436;28;19913;-57
2024/03/16 18:10:00;;;;;;;;;;;19.50;46.70;;;;;;8325703;28;20294;-57
2024/03/16 18:14:00;;;;;;;;;;;19.50;46.70;;;;;;8439112;27;20073;-58
2024/03/16 18:18:04;;;;;;;;;;;19.50;46.70;;;;;;8497535;27;19955;-57
2024/03/16 18:22:05;;;;;;;;;;;19.50;46.80;;;;;;8497715;27;19911;-57
2024/03/16 18:26:05;;;;;;;;;;;19.50;46.60;;;;;;8497229;27;19950;-57
2024/03/16 18:30:06;;;;;;;;;;;19.50;46.70;;;;;;8334034;27;20293;-61
2024/03/16 18:34:07;;;;;;;;;;;19.50;47.10;;;;;;8325144;28;19962;-61
2024/03/16 18:38:08;;;;;;;;;;;19.50;47.00;;;;;;8329114;28;20310;-58
2024/03/16 18:42:09;;;;;;;;;;;19.60;47.10;;;;;;8300660;28;20419;-59
2024/03/16 18:46:11;;;;;;;;;;;19.60;47.00;;;;;;8324992;28;19914;-61
2024/03/16 18:50:12;;;;;;;;;;;19.60;46.90;;;;;;8324832;28;19954;-60
2024/03/16 18:54:14;;;;;;;;;;;19.60;46.80;;;;;;8324520;28;19924;-59
2024/03/16 18:58:14;;;;;;;;;;;19.60;49.10;;;;;;8329019;28;20570;-60
2024/03/16 19:02:15;;;;;;;;;;;19.70;49.60;;;;;;8328815;28;19940;-59
2024/03/16 19:06:15;;;;;;;;;;;19.70;49.90;;;;;;8328626;28;20328;-60
2024/03/16 19:10:16;;;;;;;;;;;19.70;48.60;;;;;;8297701;28;19917;-60
2024/03/16 19:14:17;;;;;;;;;;;19.80;49.00;;;;;;8323168;27;20298;-61
2024/03/16 19:18:18;;;;;;;;;;;19.80;48.30;;;;;;8329853;28;19913;-62
2024/03/16 19:22:18;;;;;;;;;;;19.80;48.60;;;;;;8330373;28;20282;-65
2024/03/16 19:26:19;;;;;;;;;;;19.80;48.30;;;;;;8329605;28;20336;-65
2024/03/16 19:30:20;;;;;;;;;;;19.80;48.20;;;;;;8304402;28;19913;-58
2024/03/16 19:34:21;;;;;;;;;;;19.70;48.50;;;;;;8329360;28;19917;-60
2024/03/16 19:38:21;;;;;;;;;;;19.60;48.50;;;;;;8344067;28;19920;-59
2024/03/16 19:42:22;;;;;;;;;;;19.60;48.70;;;;;;8331624;28;19917;-59
2024/03/16 19:46:22;;;;;;;;;;;19.60;48.30;;;;;;8330038;28;19914;-59
2024/03/16 19:50:23;;;;;;;;;;;19.60;48.40;;;;;;8328076;28;19913;-59
2024/03/16 19:54:24;;;;;;;;;;;19.60;48.60;;;;;;8329242;28;20377;-61
2024/03/16 19:58:24;;;;;;;;;;;19.60;49.40;;;;;;8328691;28;19948;-63
2024/03/16 20:02:25;;;;;;;;;;;19.60;48.90;;;;;;8316544;28;19913;-61
2024/03/16 20:06:25;;;;;;;;;;;19.70;49.10;;;;;;8296453;28;19914;-63
2024/03/16 20:10:27;;;;;;;;;;;19.70;49.00;;;;;;8296406;28;19974;-64
2024/03/16 20:14:29;;;;;;;;;;;19.70;49.00;;;;;;8304015;27;19926;-59
2024/03/16 20:18:29;;;;;;;;;;;19.80;49.00;;;;;;8295584;28;19920;-61
2024/03/16 20:22:30;;;;;;;;;;;19.80;49.10;;;;;;8294409;28;20442;-59
2024/03/16 20:26:31;;;;;;;;;;;19.80;49.10;;;;;;8295637;28;19950;-60
2024/03/16 20:30:31;;;;;;;;;;;19.80;48.80;;;;;;8303503;28;19992;-59
2024/03/16 20:34:33;;;;;;;;;;;19.70;49.10;;;;;;8325105;27;19928;-59
2024/03/16 20:38:35;;;;;;;;;;;19.70;49.10;;;;;;8392999;27;19911;-59
2024/03/16 20:42:35;;;;;;;;;;;19.70;49.10;;;;;;8378343;27;19976;-61
2024/03/16 20:46:36;;;;;;;;;;;19.70;49.10;;;;;;8421874;27;20374;-58
2024/03/16 20:50:37;;;;;;;;;;;19.70;49.00;;;;;;8415741;27;19928;-59
2024/03/16 20:54:37;;;;;;;;;;;19.70;48.90;;;;;;8423951;27;20012;-59
2024/03/16 20:58:38;;;;;;;;;;;19.70;48.70;;;;;;8409193;27;19917;-59
2024/03/16 21:02:42;;;;;;;;;;;19.70;48.60;;;;;;8412096;27;19917;-59
2024/03/16 21:06:44;;;;;;;;;;;19.70;48.50;;;;;;8423726;27;19958;-58
2024/03/16 21:10:46;;;;;;;;;;;19.70;48.60;;;;;;8386441;27;19939;-59
2024/03/16 21:14:46;;;;;;;;;;;19.70;48.60;;;;;;8392554;27;19967;-58
2024/03/16 21:18:47;;;;;;;;;;;19.70;48.60;;;;;;8422613;27;19916;-59
2024/03/16 21:22:48;;;;;;;;;;;19.70;48.50;;;;;;8402570;27;19913;-59
2024/03/16 21:26:49;;;;;;;;;;;19.70;48.40;;;;;;8411208;27;19968;-59
2024/03/16 21:30:50;;;;;;;;;;;19.70;48.30;;;;;;8389617;27;20045;-60
2024/03/16 21:34:50;;;;;;;;;;;19.70;48.40;;;;;;8418587;27;20397;-58
2024/03/16 21:38:51;;;;;;;;;;;19.70;48.80;;;;;;8378032;27;19949;-59
2024/03/16 21:42:51;;;;;;;;;;;19.50;48.20;;;;;;8421422;27;20018;-57
2024/03/16 21:46:52;;;;;;;;;;;19.40;48.20;;;;;;8407933;27;19922;-60
2024/03/16 21:50:53;;;;;;;;;;;19.30;47.90;;;;;;8401064;27;20342;-58
2024/03/16 21:54:53;;;;;;;;;;;19.20;47.50;;;;;;8416385;27;19946;-56
2024/03/16 21:58:54;;;;;;;;;;;19.10;46.90;;;;;;8383829;27;19917;-56
2024/03/16 22:02:55;;;;;;;;;;;19.10;46.70;;;;;;8383811;27;20008;-58
2024/03/16 22:06:55;;;;;;;;;;;19.10;46.80;;;;;;8423420;27;20281;-55
2024/03/16 22:10:56;;;;;;;;;;;19.10;46.50;;;;;;8410167;27;20109;-58
2024/03/16 22:14:57;;;;;;;;;;;19.20;46.40;;;;;;8389173;27;19969;-58
2024/03/16 22:18:57;;;;;;;;;;;19.40;46.50;;;;;;8400307;27;19917;-58
2024/03/16 22:22:58;;;;;;;;;;;19.40;46.30;;;;;;8411287;27;20004;-59
2024/03/16 22:26:59;;;;;;;;;;;19.50;46.60;;;;;;8397585;28;19924;-58
2024/03/16 22:31:00;;;;;;;;;;;19.50;46.40;;;;;;8404950;27;19913;-59
2024/03/16 22:35:00;;;;;;;;;;;19.60;46.60;;;;;;8423050;27;19921;-58
2024/03/16 22:39:01;;;;;;;;;;;19.60;46.60;;;;;;8395634;27;19925;-58
2024/03/16 22:43:01;;;;;;;;;;;19.60;46.90;;;;;;8363258;27;20291;-57
2024/03/16 22:47:02;;;;;;;;;;;19.60;47.20;;;;;;8330698;28;20282;-57
2024/03/16 22:51:03;;;;;;;;;;;19.60;47.20;;;;;;8330581;28;19910;-58
2024/03/16 22:55:03;;;;;;;;;;;19.60;47.40;;;;;;8330207;28;19960;-57
2024/03/16 22:59:04;;;;;;;;;;;19.60;47.00;;;;;;8330181;28;19920;-58
2024/03/16 23:03:05;;;;;;;;;;;19.60;47.30;;;;;;8348298;27;19920;-58
2024/03/16 23:07:06;;;;;;;;;;;19.50;47.90;;;;;;8330212;28;19913;-58
2024/03/16 23:11:07;;;;;;;;;;;19.50;47.50;;;;;;8330247;28;19913;-58
2024/03/16 23:15:08;;;;;;;;;;;19.50;47.30;;;;;;8331628;28;20011;-59
2024/03/16 23:19:09;;;;;;;;;;;19.50;47.20;;;;;;8328236;28;20282;-59
2024/03/16 23:23:10;;;;;;;;;;;19.50;47.50;;;;;;8297038;28;20033;-59